createdAt,value
2023-05-08T00:01:16.458Z,12.04
2023-05-08T00:04:20.787Z,12.13
2023-05-08T00:07:23.487Z,11.71
2023-05-08T00:10:27.035Z,11.91
2023-05-08T00:13:29.724Z,11.97
2023-05-08T00:16:32.787Z,11.90
2023-05-08T00:19:35.754Z,11.95
2023-05-08T00:22:38.874Z,12.00
2023-05-08T00:25:41.600Z,12.10
2023-05-08T00:28:44.800Z,12.16
2023-05-08T00:31:47.597Z,11.93
2023-05-08T00:34:50.850Z,11.53
2023-05-08T00:37:53.493Z,11.12
2023-05-08T00:40:56.542Z,11.06
2023-05-08T00:43:59.242Z,11.09
2023-05-08T00:47:02.501Z,10.89
2023-05-08T00:50:05.664Z,10.84
2023-05-08T00:53:08.655Z,10.64
2023-05-08T00:56:15.863Z,10.67
2023-05-08T00:59:21.357Z,10.61
2023-05-08T01:02:24.524Z,10.75
2023-05-08T01:05:29.933Z,10.72
2023-05-08T01:08:33.251Z,10.73
2023-05-08T01:12:15.413Z,10.70
2023-05-08T01:15:38.612Z,10.67
2023-05-08T01:18:51.760Z,10.81
2023-05-08T01:22:01.177Z,10.36
2023-05-08T01:25:19.486Z,10.37
2023-05-08T01:28:50.038Z,10.31
2023-05-08T01:32:17.687Z,10.51
2023-05-08T01:35:20.398Z,10.60
2023-05-08T01:38:33.132Z,10.32
2023-05-08T01:41:37.773Z,10.41
2023-05-08T01:44:47.633Z,10.33
2023-05-08T01:48:00.536Z,10.55
2023-05-08T01:51:12.157Z,10.42
2023-05-08T01:54:19.964Z,10.84
2023-05-08T01:57:26.986Z,10.72
2023-05-08T02:00:29.829Z,10.61
2023-05-08T02:03:36.363Z,10.95
2023-05-08T02:06:39.691Z,10.76
2023-05-08T02:09:44.605Z,10.61
2023-05-08T02:12:48.718Z,10.37
2023-05-08T02:15:54.845Z,10.57
2023-05-08T02:19:00.780Z,10.58
2023-05-08T02:22:05.755Z,10.68
2023-05-08T02:25:09.805Z,10.32
2023-05-08T02:28:12.897Z,10.04
2023-05-08T02:31:17.386Z,10.26
2023-05-08T02:34:23.465Z,10.12
2023-05-08T02:37:27.577Z,10.39
2023-05-08T02:40:32.661Z,10.34
2023-05-08T02:43:35.858Z,10.15
2023-05-08T02:46:51.755Z,10.36
2023-05-08T02:50:08.624Z,10.41
2023-05-08T02:53:20.662Z,10.17
2023-05-08T02:56:32.786Z,10.02
2023-05-08T02:59:42.553Z,10.26
2023-05-08T03:02:53.197Z,10.21
2023-05-08T03:05:59.997Z,10.22
2023-05-08T03:09:04.001Z,10.07
2023-05-08T03:12:13.077Z,9.65
2023-05-08T03:15:21.610Z,9.79
2023-05-08T03:18:31.181Z,9.60
2023-05-08T03:21:37.436Z,9.76
2023-05-08T03:24:44.309Z,9.93
2023-05-08T03:27:49.213Z,10.05
2023-05-08T03:30:53.328Z,10.40
2023-05-08T03:33:56.730Z,10.05
2023-05-08T03:36:59.874Z,9.88
2023-05-08T03:40:02.723Z,9.82
2023-05-08T03:43:07.995Z,9.76
2023-05-08T03:46:11.425Z,9.40
2023-05-08T03:49:15.262Z,9.48
2023-05-08T03:52:17.919Z,9.35
2023-05-08T03:55:21.680Z,9.20
2023-05-08T03:58:36.911Z,9.47
2023-05-08T04:01:48.921Z,9.63
2023-05-08T04:05:21.122Z,9.31
2023-05-08T04:08:32.534Z,9.11
2023-05-08T04:11:44.329Z,9.58
2023-05-08T04:14:53.585Z,8.99
2023-05-08T04:18:20.855Z,9.21
2023-05-08T04:21:25.551Z,9.24
2023-05-08T04:24:32.926Z,9.51
2023-05-08T04:27:36.644Z,9.34
2023-05-08T04:30:40.858Z,9.20
2023-05-08T04:33:45.452Z,9.35
2023-05-08T04:36:48.765Z,9.08
2023-05-08T04:39:52.175Z,9.40
2023-05-08T04:42:56.046Z,9.36
2023-05-08T04:45:59.331Z,9.70
2023-05-08T04:49:02.626Z,9.34
2023-05-08T04:52:06.961Z,9.08
2023-05-08T04:55:10.768Z,9.33
2023-05-08T04:58:14.102Z,8.83
2023-05-08T05:01:17.495Z,9.23
2023-05-08T05:04:20.249Z,9.42
2023-05-08T05:07:24.272Z,9.20
2023-05-08T05:10:27.298Z,9.36
2023-05-08T05:13:30.472Z,9.26
2023-05-08T05:16:33.752Z,9.54
2023-05-08T05:19:36.966Z,9.41
2023-05-08T05:22:40.312Z,9.71
2023-05-08T05:25:44.040Z,9.81
2023-05-08T05:28:46.799Z,10.05
2023-05-08T05:31:50.061Z,9.99
2023-05-08T05:34:53.969Z,9.88
2023-05-08T05:37:57.636Z,9.65
2023-05-08T05:41:01.065Z,9.71
2023-05-08T05:44:04.551Z,9.70
2023-05-08T05:47:10.220Z,10.46
2023-05-08T05:50:14.609Z,10.24
2023-05-08T05:53:17.549Z,9.97
2023-05-08T05:56:21.665Z,10.39
2023-05-08T05:59:24.628Z,10.50
2023-05-08T06:02:27.900Z,10.66
2023-05-08T06:05:31.542Z,10.47
2023-05-08T06:08:34.675Z,10.66
2023-05-08T06:11:37.755Z,10.75
2023-05-08T06:14:41.514Z,10.71
2023-05-08T06:17:45.778Z,11.19
2023-05-08T06:20:48.648Z,11.36
2023-05-08T06:23:51.621Z,11.52
2023-05-08T06:26:54.288Z,11.37
2023-05-08T06:29:57.562Z,11.22
2023-05-08T06:33:00.517Z,10.93
2023-05-08T06:36:06.278Z,10.77
2023-05-08T06:39:09.223Z,10.86
2023-05-08T06:42:12.777Z,11.50
2023-05-08T06:45:16.225Z,11.50
2023-05-08T06:48:19.362Z,11.49
2023-05-08T06:51:23.337Z,11.69
2023-05-08T06:54:26.746Z,11.76
2023-05-08T06:57:30.460Z,11.81
2023-05-08T07:00:33.689Z,12.40
2023-05-08T07:03:37.144Z,12.01
2023-05-08T07:06:40.077Z,11.70
2023-05-08T07:09:42.796Z,12.06
2023-05-08T07:12:46.120Z,12.00
2023-05-08T07:15:49.044Z,12.49
2023-05-08T07:18:52.708Z,12.32
2023-05-08T07:21:55.738Z,12.62
2023-05-08T07:24:58.836Z,12.29
2023-05-08T07:28:01.656Z,12.67
2023-05-08T07:31:07.314Z,12.90
2023-05-08T07:34:10.204Z,13.39
2023-05-08T07:37:13.359Z,13.14
2023-05-08T07:40:16.071Z,12.87
2023-05-08T07:43:19.240Z,13.25
2023-05-08T07:46:22.631Z,13.57
2023-05-08T07:49:25.937Z,13.54
2023-05-08T07:52:28.601Z,13.48
2023-05-08T07:55:31.987Z,13.36
2023-05-08T07:58:35.178Z,13.24
2023-05-08T08:01:38.265Z,13.87
2023-05-08T08:04:41.377Z,13.64
2023-05-08T08:07:44.812Z,13.66
2023-05-08T08:10:47.759Z,13.77
2023-05-08T08:13:50.835Z,13.50
2023-05-08T08:16:53.781Z,14.31
2023-05-08T08:19:57.374Z,14.25
2023-05-08T08:23:00.385Z,14.35
2023-05-08T08:26:03.096Z,14.78
2023-05-08T08:29:06.164Z,14.02
2023-05-08T08:32:08.817Z,14.53
2023-05-08T08:35:12.165Z,14.46
2023-05-08T08:38:15.772Z,14.58
2023-05-08T08:41:18.796Z,14.47
2023-05-08T08:44:21.641Z,14.66
2023-05-08T08:47:34.922Z,14.96
2023-05-08T08:50:43.114Z,14.66
2023-05-08T08:53:50.219Z,15.49
2023-05-08T08:56:54.311Z,15.91
2023-05-08T08:59:59.696Z,15.39
2023-05-08T09:03:04.334Z,15.33
2023-05-08T09:06:07.920Z,14.99
2023-05-08T09:09:12.742Z,15.41
2023-05-08T09:12:15.839Z,15.21
2023-05-08T09:15:18.941Z,16.37
2023-05-08T09:18:22.191Z,15.32
2023-05-08T09:21:25.102Z,16.30
2023-05-08T09:24:53.612Z,15.42
2023-05-08T09:28:15.949Z,15.83
2023-05-08T09:31:19.004Z,16.29
2023-05-08T09:34:30.260Z,16.34
2023-05-08T09:37:34.004Z,16.73
2023-05-08T09:40:36.723Z,16.41
2023-05-08T09:43:40.026Z,16.85
2023-05-08T09:46:42.800Z,16.90
2023-05-08T09:50:07.069Z,17.07
2023-05-08T09:53:10.040Z,17.44
2023-05-08T09:56:14.327Z,17.48
2023-05-08T09:59:28.711Z,17.45
2023-05-08T10:02:33.071Z,16.67
2023-05-08T10:05:36.614Z,16.26
2023-05-08T10:08:39.310Z,17.63
2023-05-08T10:11:52.098Z,17.79
2023-05-08T10:14:55.720Z,17.69
2023-05-08T10:18:06.721Z,17.98
2023-05-08T10:21:09.925Z,17.44
2023-05-08T10:24:18.560Z,17.58
2023-05-08T10:27:30.547Z,17.07
2023-05-08T10:30:38.351Z,17.41
2023-05-08T10:33:41.828Z,17.27
2023-05-08T10:36:46.245Z,17.28
2023-05-08T10:39:50.473Z,17.41
2023-05-08T10:42:53.695Z,17.35
2023-05-08T10:45:58.583Z,18.13
2023-05-08T10:49:22.488Z,17.75
2023-05-08T10:52:34.096Z,17.46
2023-05-08T10:55:39.075Z,17.92
2023-05-08T10:58:56.471Z,18.44
2023-05-08T11:02:06.155Z,18.55
2023-05-08T11:05:16.802Z,18.67
2023-05-08T11:08:24.806Z,17.61
2023-05-08T11:11:34.767Z,17.74
2023-05-08T11:14:42.374Z,18.10
2023-05-08T11:17:54.357Z,18.11
2023-05-08T11:21:06.247Z,17.93
2023-05-08T11:24:11.915Z,18.32
2023-05-08T11:27:16.013Z,17.82
2023-05-08T11:30:23.739Z,17.78
2023-05-08T11:33:31.881Z,18.28
2023-05-08T11:36:36.944Z,18.78
2023-05-08T11:39:40.028Z,18.87
2023-05-08T11:42:42.863Z,19.00
2023-05-08T11:45:46.818Z,18.47
2023-05-08T11:48:49.862Z,17.77
2023-05-08T11:51:58.279Z,18.03
2023-05-08T11:55:05.869Z,18.67
2023-05-08T11:58:12.742Z,18.31
2023-05-08T12:01:21.417Z,18.00
2023-05-08T12:04:24.730Z,18.85
2023-05-08T12:07:27.908Z,18.68
2023-05-08T12:10:31.689Z,18.36
2023-05-08T12:13:34.390Z,18.46
2023-05-08T12:16:38.969Z,18.71
2023-05-08T12:19:41.727Z,18.45
2023-05-08T12:22:52.685Z,19.21
2023-05-08T12:25:58.802Z,19.51
2023-05-08T12:29:01.894Z,19.22
2023-05-08T12:32:13.618Z,18.61
2023-05-08T12:35:17.042Z,19.33
2023-05-08T12:38:19.684Z,19.87
2023-05-08T12:41:26.446Z,18.95
2023-05-08T12:44:30.427Z,19.04
2023-05-08T12:47:33.425Z,19.23
2023-05-08T12:50:38.561Z,19.33
2023-05-08T12:53:41.643Z,19.72
2023-05-08T12:56:44.812Z,19.04
2023-05-08T12:59:47.846Z,19.01
2023-05-08T13:02:55.104Z,19.73
2023-05-08T13:05:58.957Z,20.06
2023-05-08T13:09:01.628Z,19.52
2023-05-08T13:12:06.817Z,19.43
2023-05-08T13:15:10.926Z,19.57
2023-05-08T13:18:15.057Z,19.88
2023-05-08T13:21:17.974Z,19.07
2023-05-08T13:24:20.994Z,19.20
2023-05-08T13:27:23.825Z,19.29
2023-05-08T13:30:27.067Z,19.19
2023-05-08T13:33:29.628Z,19.60
2023-05-08T13:36:32.689Z,19.74
2023-05-08T13:39:37.445Z,19.73
2023-05-08T13:42:40.519Z,19.95
2023-05-08T13:45:43.087Z,20.07
2023-05-08T13:48:46.126Z,19.66
2023-05-08T13:51:52.031Z,20.01
2023-05-08T13:54:59.602Z,19.77
2023-05-08T13:58:02.522Z,19.47
2023-05-08T14:01:17.550Z,19.50
2023-05-08T14:04:28.563Z,19.32
2023-05-08T14:07:31.555Z,19.22
2023-05-08T14:10:36.781Z,18.84
2023-05-08T14:13:39.431Z,18.92
2023-05-08T14:16:42.473Z,19.59
2023-05-08T14:19:46.249Z,19.59
2023-05-08T14:22:49.705Z,19.97
2023-05-08T14:25:52.303Z,19.96
2023-05-08T14:28:55.293Z,19.57
2023-05-08T14:31:58.072Z,20.50
2023-05-08T14:35:01.079Z,20.03
2023-05-08T14:38:04.553Z,20.58
2023-05-08T14:41:07.539Z,20.13
2023-05-08T14:44:10.373Z,20.04
2023-05-08T14:47:13.252Z,19.61
2023-05-08T14:50:16.030Z,20.12
2023-05-08T14:53:19.321Z,20.05
2023-05-08T14:56:24.651Z,18.99
2023-05-08T14:59:28.019Z,19.18
2023-05-08T15:02:30.771Z,18.91
2023-05-08T15:05:33.848Z,19.99
2023-05-08T15:08:46.335Z,19.59
2023-05-08T15:11:49.330Z,18.96
2023-05-08T15:14:52.178Z,18.82
2023-05-08T15:17:55.174Z,18.39
2023-05-08T15:20:59.645Z,19.10
2023-05-08T15:24:02.670Z,19.54
2023-05-08T15:27:06.019Z,19.26
2023-05-08T15:30:09.796Z,19.46
2023-05-08T15:33:13.035Z,19.37
2023-05-08T15:36:16.044Z,18.73
2023-05-08T15:39:18.863Z,18.12
2023-05-08T15:42:22.093Z,18.33
2023-05-08T15:45:24.694Z,18.23
2023-05-08T15:48:27.783Z,17.87
2023-05-08T15:51:30.826Z,17.90
2023-05-08T15:54:34.340Z,17.99
2023-05-08T15:57:37.221Z,17.71
2023-05-08T16:00:44.727Z,17.81
2023-05-08T16:03:48.452Z,17.93
2023-05-08T16:06:51.117Z,17.85
2023-05-08T16:09:54.058Z,18.08
2023-05-08T16:12:56.830Z,18.21
2023-05-08T16:16:06.366Z,18.05
2023-05-08T16:19:09.295Z,17.55
2023-05-08T16:22:12.247Z,17.48
2023-05-08T16:25:15.152Z,17.74
2023-05-08T16:28:18.270Z,17.66
2023-05-08T16:31:20.981Z,17.99
2023-05-08T16:34:24.104Z,17.36
2023-05-08T16:37:26.719Z,16.95
2023-05-08T16:40:29.599Z,17.11
2023-05-08T16:43:32.539Z,17.00
2023-05-08T16:46:35.486Z,16.95
2023-05-08T16:49:38.467Z,16.86
2023-05-08T16:52:41.654Z,16.71
2023-05-08T16:55:44.464Z,16.65
2023-05-08T16:58:47.652Z,16.72
2023-05-08T17:01:50.352Z,16.56
2023-05-08T17:04:53.539Z,16.34
2023-05-08T17:07:56.397Z,16.46
2023-05-08T17:10:59.652Z,16.34
2023-05-08T17:14:02.431Z,16.21
2023-05-08T17:17:06.241Z,16.15
2023-05-08T17:20:09.743Z,15.94
2023-05-08T17:23:12.905Z,15.68
2023-05-08T17:26:15.840Z,15.66
2023-05-08T17:29:19.493Z,15.83
2023-05-08T17:32:22.708Z,15.62
2023-05-08T17:35:25.808Z,15.50
2023-05-08T17:38:28.458Z,15.32
2023-05-08T17:41:31.543Z,15.27
2023-05-08T17:44:34.309Z,15.33
2023-05-08T17:47:38.441Z,15.09
2023-05-08T17:50:43.538Z,15.09
2023-05-08T17:53:46.660Z,14.99
2023-05-08T17:56:49.496Z,15.17
2023-05-08T17:59:52.424Z,15.07
2023-05-08T18:02:55.202Z,14.77
2023-05-08T18:05:58.548Z,14.66
2023-05-08T18:09:02.446Z,14.68
2023-05-08T18:12:06.297Z,14.74
2023-05-08T18:15:09.433Z,14.63
2023-05-08T18:18:12.393Z,14.17
2023-05-08T18:21:15.315Z,14.24
2023-05-08T18:24:18.794Z,14.47
2023-05-08T18:27:21.541Z,14.28
2023-05-08T18:30:25.136Z,14.13
2023-05-08T18:33:28.914Z,13.94
2023-05-08T18:36:32.243Z,13.94
2023-05-08T18:39:34.970Z,13.71
2023-05-08T18:42:37.885Z,13.63
2023-05-08T18:45:41.838Z,13.76
2023-05-08T18:48:45.180Z,13.47
2023-05-08T18:51:47.941Z,13.39
2023-05-08T18:54:51.087Z,13.21
2023-05-08T18:57:54.745Z,13.50
2023-05-08T19:00:59.069Z,13.26
2023-05-08T19:04:04.311Z,13.18
2023-05-08T19:07:07.428Z,13.23
2023-05-08T19:10:10.360Z,13.24
2023-05-08T19:13:13.604Z,13.11
2023-05-08T19:16:16.634Z,13.07
2023-05-08T19:19:20.138Z,13.14
2023-05-08T19:22:23.228Z,12.79
2023-05-08T19:25:26.623Z,12.81
2023-05-08T19:28:29.336Z,12.74
2023-05-08T19:31:32.678Z,12.59
2023-05-08T19:34:37.156Z,12.79
2023-05-08T19:37:40.463Z,12.53
2023-05-08T19:40:55.660Z,12.33
2023-05-08T19:43:59.837Z,12.15
2023-05-08T19:47:03.910Z,12.16
2023-05-08T19:50:08.047Z,12.13
2023-05-08T19:53:11.028Z,12.07
2023-05-08T19:56:14.600Z,11.98
2023-05-08T19:59:17.457Z,12.06
2023-05-08T20:02:21.461Z,11.94
2023-05-08T20:05:24.549Z,12.02
2023-05-08T20:08:27.271Z,11.99
2023-05-08T20:11:30.503Z,11.70
2023-05-08T20:14:34.665Z,11.55
2023-05-08T20:17:37.803Z,11.46
2023-05-08T20:20:40.475Z,11.50
2023-05-08T20:23:43.919Z,11.75
2023-05-08T20:26:46.826Z,11.76
2023-05-08T20:29:49.770Z,11.78
2023-05-08T20:32:52.389Z,11.43
2023-05-08T20:35:55.688Z,11.60
2023-05-08T20:38:58.409Z,11.63
2023-05-08T20:42:01.278Z,11.43
2023-05-08T20:45:04.354Z,11.36
2023-05-08T20:48:07.454Z,11.42
2023-05-08T20:51:10.215Z,11.12
2023-05-08T20:54:13.364Z,10.96
2023-05-08T20:57:17.924Z,10.99
2023-05-08T21:00:21.538Z,10.87
2023-05-08T21:03:24.237Z,10.79
2023-05-08T21:06:27.249Z,10.84
2023-05-08T21:09:29.851Z,10.41
2023-05-08T21:12:32.783Z,10.83
2023-05-08T21:15:35.550Z,10.35
2023-05-08T21:18:38.560Z,10.56
2023-05-08T21:21:41.256Z,10.49
2023-05-08T21:24:44.556Z,10.34
2023-05-08T21:27:47.192Z,10.31
2023-05-08T21:30:50.085Z,10.38
2023-05-08T21:33:53.020Z,10.23
2023-05-08T21:36:56.067Z,10.31
2023-05-08T21:39:58.853Z,10.13
2023-05-08T21:43:01.714Z,10.33
2023-05-08T21:46:09.194Z,9.96
2023-05-08T21:49:12.274Z,9.93
2023-05-08T21:52:14.976Z,9.44
2023-05-08T21:55:17.883Z,9.50
2023-05-08T21:58:20.730Z,9.52
2023-05-08T22:01:23.746Z,9.71
2023-05-08T22:04:26.660Z,9.83
2023-05-08T22:07:29.292Z,9.73
2023-05-08T22:10:32.234Z,9.47
2023-05-08T22:13:34.875Z,9.67
2023-05-08T22:16:38.240Z,9.60
2023-05-08T22:19:41.014Z,9.33
2023-05-08T22:22:43.890Z,9.50
2023-05-08T22:25:46.651Z,9.35
2023-05-08T22:28:50.007Z,8.93
2023-05-08T22:31:52.719Z,9.06
2023-05-08T22:34:55.939Z,9.11
2023-05-08T22:37:58.581Z,9.28
2023-05-08T22:41:02.921Z,8.99
2023-05-08T22:44:06.405Z,8.78
2023-05-08T22:47:10.718Z,8.89
2023-05-08T22:50:13.793Z,8.86
2023-05-08T22:53:18.525Z,8.79
2023-05-08T22:56:21.266Z,8.78
2023-05-08T22:59:25.706Z,8.64
2023-05-08T23:02:33.244Z,8.60
2023-05-08T23:05:36.317Z,8.71
2023-05-08T23:08:38.905Z,8.46
2023-05-08T23:11:41.925Z,8.65
2023-05-08T23:14:44.483Z,8.55
2023-05-08T23:17:47.545Z,8.46
2023-05-08T23:20:50.396Z,8.55
2023-05-08T23:23:54.343Z,8.49
2023-05-08T23:26:56.997Z,8.53
2023-05-08T23:29:59.894Z,8.28
2023-05-08T23:33:02.652Z,8.32
2023-05-08T23:36:06.292Z,8.20
2023-05-08T23:39:08.869Z,8.46
2023-05-08T23:42:12.811Z,8.20
2023-05-08T23:45:15.775Z,8.17
2023-05-08T23:48:18.882Z,8.15
2023-05-08T23:51:21.694Z,8.13
2023-05-08T23:54:25.744Z,7.91
2023-05-08T23:57:28.433Z,8.01
